Terminal Aerodrome Forecast
Issued by NWS Wakefield, VA

Home | Current Version | Previous Version | Text Only | Print | Product List | Glossary On
Versions: 1 2 3 4 5 6 7 8 9 10 11 12 13 14 15 16 17 18 19 20 21 22 23 24 25 26 27
689
FTUS41 KAKQ 192339
TAFSBY
TAF
KSBY 192339Z 2000/2024 VRB03KT P6SM SCT250
     FM201500 12004KT P6SM OVC090
     FM201800 12006KT 5SM -RA OVC045
     FM202100 14003KT 3SM -RA OVC020=

USA.gov is the U.S. government's official web portal to all federal, state and local government web resources and services.